sensor_id;sensor_type;location;lat;lon;timestamp;temperature;humidity
8099;DHT22;4092;47.876;9.372;2022-11-02T00:02:25;9.30;99.90
8099;DHT22;4092;47.876;9.372;2022-11-02T00:04:52;9.30;99.90
8099;DHT22;4092;47.876;9.372;2022-11-02T00:07:19;9.40;99.90
8099;DHT22;4092;47.876;9.372;2022-11-02T00:09:46;9.50;99.90
8099;DHT22;4092;47.876;9.372;2022-11-02T00:12:13;9.60;99.90
8099;DHT22;4092;47.876;9.372;2022-11-02T00:14:40;9.70;99.90
8099;DHT22;4092;47.876;9.372;2022-11-02T00:17:09;9.80;99.90
8099;DHT22;4092;47.876;9.372;2022-11-02T00:19:36;9.80;99.90
8099;DHT22;4092;47.876;9.372;2022-11-02T00:22:03;9.90;99.90
8099;DHT22;4092;47.876;9.372;2022-11-02T00:24:31;9.80;99.90
8099;DHT22;4092;47.876;9.372;2022-11-02T00:26:59;9.80;99.90
8099;DHT22;4092;47.876;9.372;2022-11-02T00:29:27;9.80;99.90
8099;DHT22;4092;47.876;9.372;2022-11-02T00:31:54;9.80;99.90
8099;DHT22;4092;47.876;9.372;2022-11-02T00:34:22;9.80;99.90
8099;DHT22;4092;47.876;9.372;2022-11-02T00:36:49;9.80;99.90
8099;DHT22;4092;47.876;9.372;2022-11-02T00:39:16;9.80;99.90
8099;DHT22;4092;47.876;9.372;2022-11-02T00:41:43;9.80;99.90
8099;DHT22;4092;47.876;9.372;2022-11-02T00:44:10;9.70;99.90
8099;DHT22;4092;47.876;9.372;2022-11-02T00:46:37;9.70;99.90
8099;DHT22;4092;47.876;9.372;2022-11-02T00:49:04;9.70;99.90
8099;DHT22;4092;47.876;9.372;2022-11-02T00:51:33;9.80;99.90
8099;DHT22;4092;47.876;9.372;2022-11-02T00:54:00;9.70;99.90
8099;DHT22;4092;47.876;9.372;2022-11-02T00:56:30;9.70;99.90
8099;DHT22;4092;47.876;9.372;2022-11-02T00:58:57;9.80;99.90
8099;DHT22;4092;47.876;9.372;2022-11-02T01:01:24;9.80;99.90
8099;DHT22;4092;47.876;9.372;2022-11-02T01:03:51;9.70;99.90
8099;DHT22;4092;47.876;9.372;2022-11-02T01:06:18;9.90;99.90
8099;DHT22;4092;47.876;9.372;2022-11-02T01:08:46;9.90;99.90
8099;DHT22;4092;47.876;9.372;2022-11-02T01:11:15;9.70;99.90
8099;DHT22;4092;47.876;9.372;2022-11-02T01:13:43;9.70;99.90
8099;DHT22;4092;47.876;9.372;2022-11-02T01:16:11;9.70;99.90
8099;DHT22;4092;47.876;9.372;2022-11-02T01:18:39;9.60;99.90
8099;DHT22;4092;47.876;9.372;2022-11-02T01:21:06;9.60;99.90
8099;DHT22;4092;47.876;9.372;2022-11-02T01:23:34;9.60;99.90
8099;DHT22;4092;47.876;9.372;2022-11-02T01:26:04;9.60;99.90
8099;DHT22;4092;47.876;9.372;2022-11-02T01:28:31;9.60;99.90
8099;DHT22;4092;47.876;9.372;2022-11-02T01:30:58;9.50;99.90
8099;DHT22;4092;47.876;9.372;2022-11-02T01:33:26;9.50;99.90
8099;DHT22;4092;47.876;9.372;2022-11-02T01:35:54;9.50;99.90
8099;DHT22;4092;47.876;9.372;2022-11-02T01:38:21;9.50;99.90
8099;DHT22;4092;47.876;9.372;2022-11-02T01:40:48;9.50;99.90
8099;DHT22;4092;47.876;9.372;2022-11-02T01:43:21;9.40;99.90
8099;DHT22;4092;47.876;9.372;2022-11-02T01:45:50;9.40;99.90
8099;DHT22;4092;47.876;9.372;2022-11-02T01:48:20;9.40;99.90
8099;DHT22;4092;47.876;9.372;2022-11-02T01:50:50;9.40;99.90
8099;DHT22;4092;47.876;9.372;2022-11-02T01:53:18;9.40;99.90
8099;DHT22;4092;47.876;9.372;2022-11-02T01:55:45;9.30;99.90
8099;DHT22;4092;47.876;9.372;2022-11-02T01:58:12;9.40;99.90
8099;DHT22;4092;47.876;9.372;2022-11-02T02:00:40;9.30;99.90
8099;DHT22;4092;47.876;9.372;2022-11-02T02:03:09;9.30;99.90
8099;DHT22;4092;47.876;9.372;2022-11-02T02:05:39;9.40;99.90
8099;DHT22;4092;47.876;9.372;2022-11-02T02:08:08;9.40;99.90
8099;DHT22;4092;47.876;9.372;2022-11-02T02:10:36;9.40;99.90
8099;DHT22;4092;47.876;9.372;2022-11-02T02:13:04;9.40;99.90
8099;DHT22;4092;47.876;9.372;2022-11-02T02:15:38;9.40;99.90
8099;DHT22;4092;47.876;9.372;2022-11-02T02:18:15;9.50;99.90
8099;DHT22;4092;47.876;9.372;2022-11-02T02:20:58;9.60;99.90
8099;DHT22;4092;47.876;9.372;2022-11-02T02:23:48;9.60;99.90
8099;DHT22;4092;47.876;9.372;2022-11-02T02:29:22;9.70;99.90
8099;DHT22;4092;47.876;9.372;2022-11-02T02:31:55;9.70;99.90
8099;DHT22;4092;47.876;9.372;2022-11-02T02:34:27;9.70;99.90
8099;DHT22;4092;47.876;9.372;2022-11-02T02:36:58;9.70;99.90
8099;DHT22;4092;47.876;9.372;2022-11-02T02:39:31;9.70;99.90
8099;DHT22;4092;47.876;9.372;2022-11-02T02:42:08;9.70;99.90
8099;DHT22;4092;47.876;9.372;2022-11-02T02:44:43;9.70;99.90
8099;DHT22;4092;47.876;9.372;2022-11-02T02:47:13;9.80;99.90
8099;DHT22;4092;47.876;9.372;2022-11-02T02:49:46;9.80;99.90
8099;DHT22;4092;47.876;9.372;2022-11-02T02:52:16;9.90;99.90
8099;DHT22;4092;47.876;9.372;2022-11-02T02:54:45;9.80;99.90
8099;DHT22;4092;47.876;9.372;2022-11-02T02:57:16;9.80;99.90
8099;DHT22;4092;47.876;9.372;2022-11-02T02:59:47;9.80;99.90
8099;DHT22;4092;47.876;9.372;2022-11-02T03:02:17;9.90;99.90
8099;DHT22;4092;47.876;9.372;2022-11-02T03:04:46;9.80;99.90
8099;DHT22;4092;47.876;9.372;2022-11-02T03:07:16;9.70;99.90
8099;DHT22;4092;47.876;9.372;2022-11-02T03:09:48;9.70;99.90
8099;DHT22;4092;47.876;9.372;2022-11-02T03:12:22;9.80;99.90
8099;DHT22;4092;47.876;9.372;2022-11-02T03:15:06;9.80;99.90
8099;DHT22;4092;47.876;9.372;2022-11-02T03:17:44;9.80;99.90
8099;DHT22;4092;47.876;9.372;2022-11-02T03:20:20;9.90;99.90
8099;DHT22;4092;47.876;9.372;2022-11-02T03:22:54;10.00;99.90
8099;DHT22;4092;47.876;9.372;2022-11-02T03:25:28;10.00;99.90
8099;DHT22;4092;47.876;9.372;2022-11-02T03:28:17;10.10;99.90
8099;DHT22;4092;47.876;9.372;2022-11-02T03:30:49;10.10;99.90
8099;DHT22;4092;47.876;9.372;2022-11-02T03:33:25;10.10;99.90
8099;DHT22;4092;47.876;9.372;2022-11-02T03:35:57;10.10;99.90
8099;DHT22;4092;47.876;9.372;2022-11-02T03:38:33;10.10;99.90
8099;DHT22;4092;47.876;9.372;2022-11-02T03:41:03;10.10;99.90
8099;DHT22;4092;47.876;9.372;2022-11-02T03:43:32;10.10;99.90
8099;DHT22;4092;47.876;9.372;2022-11-02T03:46:02;10.20;99.90
8099;DHT22;4092;47.876;9.372;2022-11-02T03:48:36;10.20;99.90
8099;DHT22;4092;47.876;9.372;2022-11-02T03:51:07;10.10;99.90
8099;DHT22;4092;47.876;9.372;2022-11-02T03:53:42;10.20;99.90
8099;DHT22;4092;47.876;9.372;2022-11-02T03:56:14;10.10;99.90
8099;DHT22;4092;47.876;9.372;2022-11-02T03:58:43;10.20;99.90
8099;DHT22;4092;47.876;9.372;2022-11-02T04:01:12;10.20;99.90
8099;DHT22;4092;47.876;9.372;2022-11-02T04:03:42;10.10;99.90
8099;DHT22;4092;47.876;9.372;2022-11-02T04:06:09;10.20;99.90
8099;DHT22;4092;47.876;9.372;2022-11-02T04:08:39;10.20;99.90
8099;DHT22;4092;47.876;9.372;2022-11-02T04:11:07;10.20;99.90
8099;DHT22;4092;47.876;9.372;2022-11-02T04:13:52;10.20;99.90
8099;DHT22;4092;47.876;9.372;2022-11-02T04:16:38;10.20;99.90
8099;DHT22;4092;47.876;9.372;2022-11-02T04:19:05;10.20;99.90
8099;DHT22;4092;47.876;9.372;2022-11-02T04:21:49;10.20;99.90
8099;DHT22;4092;47.876;9.372;2022-11-02T04:24:34;10.10;99.90
8099;DHT22;4092;47.876;9.372;2022-11-02T04:27:18;10.10;99.90
8099;DHT22;4092;47.876;9.372;2022-11-02T04:29:45;10.10;99.90
8099;DHT22;4092;47.876;9.372;2022-11-02T04:32:13;10.10;99.90
8099;DHT22;4092;47.876;9.372;2022-11-02T04:35:01;10.10;99.90
8099;DHT22;4092;47.876;9.372;2022-11-02T04:37:27;10.10;99.90
8099;DHT22;4092;47.876;9.372;2022-11-02T04:40:11;10.10;99.90
8099;DHT22;4092;47.876;9.372;2022-11-02T04:42:38;10.20;99.90
8099;DHT22;4092;47.876;9.372;2022-11-02T04:45:06;10.20;99.90
8099;DHT22;4092;47.876;9.372;2022-11-02T04:47:35;10.20;99.90
8099;DHT22;4092;47.876;9.372;2022-11-02T04:50:02;10.10;99.90
8099;DHT22;4092;47.876;9.372;2022-11-02T04:52:29;10.10;99.90
8099;DHT22;4092;47.876;9.372;2022-11-02T04:54:56;10.10;99.90
8099;DHT22;4092;47.876;9.372;2022-11-02T04:57:23;10.20;99.90
8099;DHT22;4092;47.876;9.372;2022-11-02T04:59:50;10.20;99.90
8099;DHT22;4092;47.876;9.372;2022-11-02T05:02:18;10.20;99.90
8099;DHT22;4092;47.876;9.372;2022-11-02T05:04:46;10.20;99.90
8099;DHT22;4092;47.876;9.372;2022-11-02T05:07:13;10.40;99.90
8099;DHT22;4092;47.876;9.372;2022-11-02T05:09:40;10.30;99.90
8099;DHT22;4092;47.876;9.372;2022-11-02T05:12:08;10.40;99.90
8099;DHT22;4092;47.876;9.372;2022-11-02T05:14:35;10.40;99.90
8099;DHT22;4092;47.876;9.372;2022-11-02T05:17:02;10.40;99.90
8099;DHT22;4092;47.876;9.372;2022-11-02T05:19:29;10.40;99.90
8099;DHT22;4092;47.876;9.372;2022-11-02T05:21:58;10.30;99.90
8099;DHT22;4092;47.876;9.372;2022-11-02T05:24:25;10.40;99.90
8099;DHT22;4092;47.876;9.372;2022-11-02T05:26:52;10.30;99.90
8099;DHT22;4092;47.876;9.372;2022-11-02T05:29:19;10.40;99.90
8099;DHT22;4092;47.876;9.372;2022-11-02T05:31:46;10.30;99.90
8099;DHT22;4092;47.876;9.372;2022-11-02T05:34:13;10.40;99.90
8099;DHT22;4092;47.876;9.372;2022-11-02T05:36:40;10.30;99.90
8099;DHT22;4092;47.876;9.372;2022-11-02T05:39:08;10.30;99.90
8099;DHT22;4092;47.876;9.372;2022-11-02T05:41:35;10.30;99.90
8099;DHT22;4092;47.876;9.372;2022-11-02T05:44:02;10.30;99.90
8099;DHT22;4092;47.876;9.372;2022-11-02T05:46:29;10.30;99.90
8099;DHT22;4092;47.876;9.372;2022-11-02T05:48:56;10.30;99.90
8099;DHT22;4092;47.876;9.372;2022-11-02T05:51:23;10.30;99.90
8099;DHT22;4092;47.876;9.372;2022-11-02T05:53:50;10.30;99.90
8099;DHT22;4092;47.876;9.372;2022-11-02T05:56:18;10.20;99.90
8099;DHT22;4092;47.876;9.372;2022-11-02T05:58:45;10.20;99.90
8099;DHT22;4092;47.876;9.372;2022-11-02T06:01:12;10.20;99.90
8099;DHT22;4092;47.876;9.372;2022-11-02T06:03:39;10.20;99.90
8099;DHT22;4092;47.876;9.372;2022-11-02T06:06:09;10.10;99.90
8099;DHT22;4092;47.876;9.372;2022-11-02T06:08:38;10.10;99.90
8099;DHT22;4092;47.876;9.372;2022-11-02T06:11:05;10.10;99.90
8099;DHT22;4092;47.876;9.372;2022-11-02T06:13:34;10.00;99.90
8099;DHT22;4092;47.876;9.372;2022-11-02T06:16:02;10.00;99.90
8099;DHT22;4092;47.876;9.372;2022-11-02T06:18:29;10.00;99.90
8099;DHT22;4092;47.876;9.372;2022-11-02T06:20:57;10.00;99.90
8099;DHT22;4092;47.876;9.372;2022-11-02T06:23:24;10.00;99.90
8099;DHT22;4092;47.876;9.372;2022-11-02T06:25:52;10.00;99.90
8099;DHT22;4092;47.876;9.372;2022-11-02T06:28:20;10.00;99.90
8099;DHT22;4092;47.876;9.372;2022-11-02T06:30:49;10.00;99.90
8099;DHT22;4092;47.876;9.372;2022-11-02T06:33:17;10.00;99.90
8099;DHT22;4092;47.876;9.372;2022-11-02T06:35:45;9.90;99.90
8099;DHT22;4092;47.876;9.372;2022-11-02T06:38:12;10.00;99.90
8099;DHT22;4092;47.876;9.372;2022-11-02T06:40:40;10.00;99.90
8099;DHT22;4092;47.876;9.372;2022-11-02T06:43:07;9.90;99.90
8099;DHT22;4092;47.876;9.372;2022-11-02T06:45:34;9.90;99.90
8099;DHT22;4092;47.876;9.372;2022-11-02T06:48:02;10.00;99.90
8099;DHT22;4092;47.876;9.372;2022-11-02T06:50:29;10.00;99.90
8099;DHT22;4092;47.876;9.372;2022-11-02T06:52:56;10.00;99.90
8099;DHT22;4092;47.876;9.372;2022-11-02T06:55:23;9.90;99.90
8099;DHT22;4092;47.876;9.372;2022-11-02T06:57:50;10.00;99.90
8099;DHT22;4092;47.876;9.372;2022-11-02T07:00:17;10.00;99.90
8099;DHT22;4092;47.876;9.372;2022-11-02T07:02:44;10.00;99.90
8099;DHT22;4092;47.876;9.372;2022-11-02T07:05:13;10.10;99.90
8099;DHT22;4092;47.876;9.372;2022-11-02T07:07:40;10.10;99.90
8099;DHT22;4092;47.876;9.372;2022-11-02T07:10:08;10.20;99.90
8099;DHT22;4092;47.876;9.372;2022-11-02T07:12:35;10.30;99.90
8099;DHT22;4092;47.876;9.372;2022-11-02T07:15:03;10.30;99.90
8099;DHT22;4092;47.876;9.372;2022-11-02T07:17:30;10.40;99.90
8099;DHT22;4092;47.876;9.372;2022-11-02T07:19:57;10.40;99.90
8099;DHT22;4092;47.876;9.372;2022-11-02T07:22:25;10.40;99.90
8099;DHT22;4092;47.876;9.372;2022-11-02T07:24:52;10.40;99.90
8099;DHT22;4092;47.876;9.372;2022-11-02T07:27:19;10.40;99.90
8099;DHT22;4092;47.876;9.372;2022-11-02T07:29:47;10.40;99.90
8099;DHT22;4092;47.876;9.372;2022-11-02T07:32:14;10.40;99.90
8099;DHT22;4092;47.876;9.372;2022-11-02T07:34:41;10.40;99.90
8099;DHT22;4092;47.876;9.372;2022-11-02T07:37:08;10.40;99.90
8099;DHT22;4092;47.876;9.372;2022-11-02T07:39:36;10.40;99.90
8099;DHT22;4092;47.876;9.372;2022-11-02T07:42:04;10.50;99.90
8099;DHT22;4092;47.876;9.372;2022-11-02T07:44:32;10.50;99.90
8099;DHT22;4092;47.876;9.372;2022-11-02T07:46:59;10.50;99.90
8099;DHT22;4092;47.876;9.372;2022-11-02T07:49:26;10.60;99.90
8099;DHT22;4092;47.876;9.372;2022-11-02T07:51:54;10.60;99.90
8099;DHT22;4092;47.876;9.372;2022-11-02T07:54:21;10.60;99.90
8099;DHT22;4092;47.876;9.372;2022-11-02T07:56:50;10.70;99.90
8099;DHT22;4092;47.876;9.372;2022-11-02T07:59:17;10.70;99.90
8099;DHT22;4092;47.876;9.372;2022-11-02T08:01:44;10.80;99.90
8099;DHT22;4092;47.876;9.372;2022-11-02T08:04:11;10.90;99.90
8099;DHT22;4092;47.876;9.372;2022-11-02T08:06:38;10.90;99.90
8099;DHT22;4092;47.876;9.372;2022-11-02T08:09:05;10.90;99.90
8099;DHT22;4092;47.876;9.372;2022-11-02T08:11:32;10.80;99.90
8099;DHT22;4092;47.876;9.372;2022-11-02T08:14:01;10.80;99.90
8099;DHT22;4092;47.876;9.372;2022-11-02T08:16:29;10.90;99.90
8099;DHT22;4092;47.876;9.372;2022-11-02T08:18:56;11.00;99.90
8099;DHT22;4092;47.876;9.372;2022-11-02T08:21:24;11.00;99.90
8099;DHT22;4092;47.876;9.372;2022-11-02T08:23:51;11.00;99.90
8099;DHT22;4092;47.876;9.372;2022-11-02T08:26:18;11.00;99.90
8099;DHT22;4092;47.876;9.372;2022-11-02T08:28:45;11.10;99.90
8099;DHT22;4092;47.876;9.372;2022-11-02T08:31:16;11.00;99.90
8099;DHT22;4092;47.876;9.372;2022-11-02T08:33:43;11.10;99.90
8099;DHT22;4092;47.876;9.372;2022-11-02T08:36:11;11.20;99.90
8099;DHT22;4092;47.876;9.372;2022-11-02T08:38:38;11.30;99.90
8099;DHT22;4092;47.876;9.372;2022-11-02T08:41:05;11.40;99.90
8099;DHT22;4092;47.876;9.372;2022-11-02T08:43:32;11.40;99.90
8099;DHT22;4092;47.876;9.372;2022-11-02T08:45:59;11.50;99.90
8099;DHT22;4092;47.876;9.372;2022-11-02T08:48:28;11.50;99.90
8099;DHT22;4092;47.876;9.372;2022-11-02T08:50:56;11.40;99.90
8099;DHT22;4092;47.876;9.372;2022-11-02T08:53:23;11.40;99.90
8099;DHT22;4092;47.876;9.372;2022-11-02T08:55:50;11.40;99.90
8099;DHT22;4092;47.876;9.372;2022-11-02T08:58:17;11.30;99.90
8099;DHT22;4092;47.876;9.372;2022-11-02T09:00:44;11.20;99.90
8099;DHT22;4092;47.876;9.372;2022-11-02T09:03:12;11.20;99.90
8099;DHT22;4092;47.876;9.372;2022-11-02T09:05:42;11.20;99.90
8099;DHT22;4092;47.876;9.372;2022-11-02T09:08:11;11.30;99.90
8099;DHT22;4092;47.876;9.372;2022-11-02T09:10:38;11.20;99.90
8099;DHT22;4092;47.876;9.372;2022-11-02T09:13:07;11.30;99.90
8099;DHT22;4092;47.876;9.372;2022-11-02T09:15:36;11.40;99.90
8099;DHT22;4092;47.876;9.372;2022-11-02T09:18:04;11.30;99.90
8099;DHT22;4092;47.876;9.372;2022-11-02T09:20:31;11.40;99.90
8099;DHT22;4092;47.876;9.372;2022-11-02T09:23:00;11.40;99.90
8099;DHT22;4092;47.876;9.372;2022-11-02T09:25:27;11.40;99.90
8099;DHT22;4092;47.876;9.372;2022-11-02T09:27:55;11.60;99.90
8099;DHT22;4092;47.876;9.372;2022-11-02T09:30:24;11.80;99.90
8099;DHT22;4092;47.876;9.372;2022-11-02T09:32:55;12.00;99.90
8099;DHT22;4092;47.876;9.372;2022-11-02T09:35:23;12.00;99.90
8099;DHT22;4092;47.876;9.372;2022-11-02T09:37:51;12.00;99.90
8099;DHT22;4092;47.876;9.372;2022-11-02T09:40:22;12.10;99.90
8099;DHT22;4092;47.876;9.372;2022-11-02T09:43:00;12.00;99.90
8099;DHT22;4092;47.876;9.372;2022-11-02T09:45:30;12.00;99.90
8099;DHT22;4092;47.876;9.372;2022-11-02T09:48:02;12.00;99.90
8099;DHT22;4092;47.876;9.372;2022-11-02T09:50:38;12.00;99.90
8099;DHT22;4092;47.876;9.372;2022-11-02T09:53:11;12.00;99.90
8099;DHT22;4092;47.876;9.372;2022-11-02T09:55:46;12.00;99.90
8099;DHT22;4092;47.876;9.372;2022-11-02T09:58:18;12.10;99.90
8099;DHT22;4092;47.876;9.372;2022-11-02T10:00:48;12.10;99.90
8099;DHT22;4092;47.876;9.372;2022-11-02T10:03:26;12.10;99.90
8099;DHT22;4092;47.876;9.372;2022-11-02T10:05:57;12.20;99.90
8099;DHT22;4092;47.876;9.372;2022-11-02T10:08:37;12.10;99.90
8099;DHT22;4092;47.876;9.372;2022-11-02T10:11:24;12.10;99.90
8099;DHT22;4092;47.876;9.372;2022-11-02T10:13:56;12.10;99.90
8099;DHT22;4092;47.876;9.372;2022-11-02T10:16:28;12.10;99.90
8099;DHT22;4092;47.876;9.372;2022-11-02T10:18:57;12.10;99.90
8099;DHT22;4092;47.876;9.372;2022-11-02T10:21:27;12.20;99.90
8099;DHT22;4092;47.876;9.372;2022-11-02T10:23:59;12.20;99.90
8099;DHT22;4092;47.876;9.372;2022-11-02T10:26:31;12.10;99.90
8099;DHT22;4092;47.876;9.372;2022-11-02T10:29:00;12.10;99.90
8099;DHT22;4092;47.876;9.372;2022-11-02T10:31:30;12.10;99.90
8099;DHT22;4092;47.876;9.372;2022-11-02T10:34:01;12.20;99.90
8099;DHT22;4092;47.876;9.372;2022-11-02T10:36:42;12.10;99.90
8099;DHT22;4092;47.876;9.372;2022-11-02T10:39:20;12.20;99.90
8099;DHT22;4092;47.876;9.372;2022-11-02T10:42:21;12.20;99.90
8099;DHT22;4092;47.876;9.372;2022-11-02T10:45:11;12.10;99.90
8099;DHT22;4092;47.876;9.372;2022-11-02T10:47:54;12.10;99.90
8099;DHT22;4092;47.876;9.372;2022-11-02T10:50:45;12.00;99.90
8099;DHT22;4092;47.876;9.372;2022-11-02T10:53:13;12.00;99.90
8099;DHT22;4092;47.876;9.372;2022-11-02T10:55:48;12.00;99.90
8099;DHT22;4092;47.876;9.372;2022-11-02T10:58:20;11.90;99.90
8099;DHT22;4092;47.876;9.372;2022-11-02T11:00:48;12.00;99.90
8099;DHT22;4092;47.876;9.372;2022-11-02T11:03:17;11.90;99.90
8099;DHT22;4092;47.876;9.372;2022-11-02T11:05:58;12.00;99.90
8099;DHT22;4092;47.876;9.372;2022-11-02T11:08:34;12.10;99.90
8099;DHT22;4092;47.876;9.372;2022-11-02T11:11:14;12.00;99.90
8099;DHT22;4092;47.876;9.372;2022-11-02T11:13:51;12.00;99.90
8099;DHT22;4092;47.876;9.372;2022-11-02T11:16:33;12.00;99.90
8099;DHT22;4092;47.876;9.372;2022-11-02T11:19:01;12.10;99.90
8099;DHT22;4092;47.876;9.372;2022-11-02T11:21:37;12.10;99.90
8099;DHT22;4092;47.876;9.372;2022-11-02T11:24:19;12.10;99.90
8099;DHT22;4092;47.876;9.372;2022-11-02T11:26:59;12.20;99.90
8099;DHT22;4092;47.876;9.372;2022-11-02T11:29:31;12.10;99.90
8099;DHT22;4092;47.876;9.372;2022-11-02T11:31:58;12.20;99.90
8099;DHT22;4092;47.876;9.372;2022-11-02T11:34:29;12.30;99.90
8099;DHT22;4092;47.876;9.372;2022-11-02T11:37:05;12.40;99.90
8099;DHT22;4092;47.876;9.372;2022-11-02T11:39:33;12.50;99.90
8099;DHT22;4092;47.876;9.372;2022-11-02T11:42:02;12.50;99.90
8099;DHT22;4092;47.876;9.372;2022-11-02T11:44:32;12.50;99.90
8099;DHT22;4092;47.876;9.372;2022-11-02T11:47:00;12.50;99.90
8099;DHT22;4092;47.876;9.372;2022-11-02T11:49:30;12.50;99.90
8099;DHT22;4092;47.876;9.372;2022-11-02T11:51:59;12.60;99.90
8099;DHT22;4092;47.876;9.372;2022-11-02T11:54:27;12.60;99.90
8099;DHT22;4092;47.876;9.372;2022-11-02T11:56:56;12.50;99.90
8099;DHT22;4092;47.876;9.372;2022-11-02T11:59:29;12.40;99.90
8099;DHT22;4092;47.876;9.372;2022-11-02T12:01:59;12.40;99.90
8099;DHT22;4092;47.876;9.372;2022-11-02T12:04:36;12.30;99.90
8099;DHT22;4092;47.876;9.372;2022-11-02T12:10:08;12.40;99.90
8099;DHT22;4092;47.876;9.372;2022-11-02T12:12:44;12.40;99.90
8099;DHT22;4092;47.876;9.372;2022-11-02T12:15:26;12.40;99.90
8099;DHT22;4092;47.876;9.372;2022-11-02T12:18:06;12.40;99.90
8099;DHT22;4092;47.876;9.372;2022-11-02T12:20:49;12.40;99.90
8099;DHT22;4092;47.876;9.372;2022-11-02T12:23:32;12.40;99.90
8099;DHT22;4092;47.876;9.372;2022-11-02T12:26:13;12.40;99.90
8099;DHT22;4092;47.876;9.372;2022-11-02T12:28:56;12.50;99.90
8099;DHT22;4092;47.876;9.372;2022-11-02T12:31:32;12.50;99.90
8099;DHT22;4092;47.876;9.372;2022-11-02T12:34:22;12.40;99.90
8099;DHT22;4092;47.876;9.372;2022-11-02T12:37:02;12.60;99.90
8099;DHT22;4092;47.876;9.372;2022-11-02T12:39:40;12.60;99.90
8099;DHT22;4092;47.876;9.372;2022-11-02T12:42:18;12.60;99.90
8099;DHT22;4092;47.876;9.372;2022-11-02T12:45:00;12.70;99.90
8099;DHT22;4092;47.876;9.372;2022-11-02T12:47:38;12.60;99.90
8099;DHT22;4092;47.876;9.372;2022-11-02T12:50:17;12.60;99.90
8099;DHT22;4092;47.876;9.372;2022-11-02T12:53:02;12.70;99.90
8099;DHT22;4092;47.876;9.372;2022-11-02T12:55:32;12.70;99.90
8099;DHT22;4092;47.876;9.372;2022-11-02T12:58:04;12.80;99.90
8099;DHT22;4092;47.876;9.372;2022-11-02T13:00:35;12.80;99.90
8099;DHT22;4092;47.876;9.372;2022-11-02T13:03:07;12.70;99.90
8099;DHT22;4092;47.876;9.372;2022-11-02T13:05:38;12.60;99.90
8099;DHT22;4092;47.876;9.372;2022-11-02T13:08:10;12.60;99.90
8099;DHT22;4092;47.876;9.372;2022-11-02T13:10:42;12.60;99.90
8099;DHT22;4092;47.876;9.372;2022-11-02T13:13:14;12.60;99.90
8099;DHT22;4092;47.876;9.372;2022-11-02T13:15:44;12.80;99.90
8099;DHT22;4092;47.876;9.372;2022-11-02T13:18:17;13.10;99.90
8099;DHT22;4092;47.876;9.372;2022-11-02T13:20:49;13.30;99.90
8099;DHT22;4092;47.876;9.372;2022-11-02T13:23:25;13.50;99.90
8099;DHT22;4092;47.876;9.372;2022-11-02T13:25:57;13.60;99.90
8099;DHT22;4092;47.876;9.372;2022-11-02T13:28:31;13.80;99.90
8099;DHT22;4092;47.876;9.372;2022-11-02T13:31:00;14.00;99.90
8099;DHT22;4092;47.876;9.372;2022-11-02T13:33:35;14.10;99.90
8099;DHT22;4092;47.876;9.372;2022-11-02T13:36:05;14.00;99.90
8099;DHT22;4092;47.876;9.372;2022-11-02T13:38:35;14.00;99.90
8099;DHT22;4092;47.876;9.372;2022-11-02T13:41:29;13.80;99.90
8099;DHT22;4092;47.876;9.372;2022-11-02T13:44:20;13.70;99.90
8099;DHT22;4092;47.876;9.372;2022-11-02T13:47:06;13.70;99.90
8099;DHT22;4092;47.876;9.372;2022-11-02T13:49:36;13.80;99.90
8099;DHT22;4092;47.876;9.372;2022-11-02T13:52:10;13.70;99.90
8099;DHT22;4092;47.876;9.372;2022-11-02T13:54:39;13.70;99.90
8099;DHT22;4092;47.876;9.372;2022-11-02T13:57:22;13.70;99.90
8099;DHT22;4092;47.876;9.372;2022-11-02T13:59:53;13.80;99.90
8099;DHT22;4092;47.876;9.372;2022-11-02T14:02:21;13.80;99.90
8099;DHT22;4092;47.876;9.372;2022-11-02T14:04:49;13.80;99.90
8099;DHT22;4092;47.876;9.372;2022-11-02T14:07:23;13.80;99.90
8099;DHT22;4092;47.876;9.372;2022-11-02T14:09:56;13.80;99.90
8099;DHT22;4092;47.876;9.372;2022-11-02T14:12:26;13.90;99.90
8099;DHT22;4092;47.876;9.372;2022-11-02T14:18:26;14.00;99.90
8099;DHT22;4092;47.876;9.372;2022-11-02T14:20:55;14.10;99.90
8099;DHT22;4092;47.876;9.372;2022-11-02T14:23:39;14.20;99.90
8099;DHT22;4092;47.876;9.372;2022-11-02T14:26:31;14.30;99.90
8099;DHT22;4092;47.876;9.372;2022-11-02T14:29:01;14.40;99.90
8099;DHT22;4092;47.876;9.372;2022-11-02T14:31:49;14.30;99.90
8099;DHT22;4092;47.876;9.372;2022-11-02T14:34:38;14.30;99.90
8099;DHT22;4092;47.876;9.372;2022-11-02T14:37:34;14.30;99.90
8099;DHT22;4092;47.876;9.372;2022-11-02T14:40:12;14.40;99.90
8099;DHT22;4092;47.876;9.372;2022-11-02T14:43:20;14.30;99.90
8099;DHT22;4092;47.876;9.372;2022-11-02T14:46:03;14.40;99.90
8099;DHT22;4092;47.876;9.372;2022-11-02T14:48:42;14.70;99.90
8099;DHT22;4092;47.876;9.372;2022-11-02T14:51:16;14.80;99.90
8099;DHT22;4092;47.876;9.372;2022-11-02T14:53:43;15.10;99.90
8099;DHT22;4092;47.876;9.372;2022-11-02T14:56:12;15.50;99.90
8099;DHT22;4092;47.876;9.372;2022-11-02T14:58:47;15.50;99.90
8099;DHT22;4092;47.876;9.372;2022-11-02T15:01:15;15.20;99.90
8099;DHT22;4092;47.876;9.372;2022-11-02T15:03:43;15.00;99.90
8099;DHT22;4092;47.876;9.372;2022-11-02T15:06:16;14.70;99.90
8099;DHT22;4092;47.876;9.372;2022-11-02T15:08:52;14.60;99.90
8099;DHT22;4092;47.876;9.372;2022-11-02T15:11:47;14.40;99.90
8099;DHT22;4092;47.876;9.372;2022-11-02T15:14:51;14.00;99.90
8099;DHT22;4092;47.876;9.372;2022-11-02T15:17:51;13.90;99.90
8099;DHT22;4092;47.876;9.372;2022-11-02T15:20:30;13.70;99.90
8099;DHT22;4092;47.876;9.372;2022-11-02T15:23:02;13.40;99.90
8099;DHT22;4092;47.876;9.372;2022-11-02T15:25:34;13.30;99.90
8099;DHT22;4092;47.876;9.372;2022-11-02T15:28:10;13.10;99.90
8099;DHT22;4092;47.876;9.372;2022-11-02T15:30:42;13.10;99.90
8099;DHT22;4092;47.876;9.372;2022-11-02T15:33:18;12.90;99.90
8099;DHT22;4092;47.876;9.372;2022-11-02T15:35:46;12.80;99.90
8099;DHT22;4092;47.876;9.372;2022-11-02T15:38:17;12.70;99.90
8099;DHT22;4092;47.876;9.372;2022-11-02T15:40:49;12.60;99.90
8099;DHT22;4092;47.876;9.372;2022-11-02T15:43:45;12.50;99.90
8099;DHT22;4092;47.876;9.372;2022-11-02T15:46:24;12.40;99.90
8099;DHT22;4092;47.876;9.372;2022-11-02T15:48:59;12.30;99.90
8099;DHT22;4092;47.876;9.372;2022-11-02T15:51:36;12.20;99.90
8099;DHT22;4092;47.876;9.372;2022-11-02T15:57:08;11.90;99.90
8099;DHT22;4092;47.876;9.372;2022-11-02T15:59:56;11.80;99.90
8099;DHT22;4092;47.876;9.372;2022-11-02T16:02:26;11.60;99.90
8099;DHT22;4092;47.876;9.372;2022-11-02T16:04:56;11.50;99.90
8099;DHT22;4092;47.876;9.372;2022-11-02T16:07:24;11.40;99.90
8099;DHT22;4092;47.876;9.372;2022-11-02T16:09:52;11.30;99.90
8099;DHT22;4092;47.876;9.372;2022-11-02T16:12:20;11.10;99.90
8099;DHT22;4092;47.876;9.372;2022-11-02T16:14:53;11.00;99.90
8099;DHT22;4092;47.876;9.372;2022-11-02T16:17:23;10.90;99.90
8099;DHT22;4092;47.876;9.372;2022-11-02T16:19:52;10.80;99.90
8099;DHT22;4092;47.876;9.372;2022-11-02T16:22:34;10.60;99.90
8099;DHT22;4092;47.876;9.372;2022-11-02T16:25:07;10.50;99.90
8099;DHT22;4092;47.876;9.372;2022-11-02T16:27:36;10.40;99.90
8099;DHT22;4092;47.876;9.372;2022-11-02T16:30:05;10.30;99.90
8099;DHT22;4092;47.876;9.372;2022-11-02T16:32:33;10.30;99.90
8099;DHT22;4092;47.876;9.372;2022-11-02T16:35:01;10.20;99.90
8099;DHT22;4092;47.876;9.372;2022-11-02T16:37:29;10.10;99.90
8099;DHT22;4092;47.876;9.372;2022-11-02T16:39:57;10.00;99.90
8099;DHT22;4092;47.876;9.372;2022-11-02T16:42:24;10.00;99.90
8099;DHT22;4092;47.876;9.372;2022-11-02T16:44:54;9.90;99.90
8099;DHT22;4092;47.876;9.372;2022-11-02T16:47:35;9.80;99.90